Time;durP1;ratioP1;P1;durP2;ratioP2;P2;SDS_P1;SDS_P2;PMS_P1;PMS_P2;Temp;Humidity;BMP_temperature;BMP_pressure;BME280_temperature;BME280_humidity;BME280_pressure;Samples;Min_cycle;Max_cycle;Signal;HPM_P1;HPM_P2
2022/06/22 00:02:30;;;;;;;5.80;4.50;;;;;;;;;;5055489;28;20192;-87
2022/06/22 00:04:59;;;;;;;6.60;3.83;;;;;;;;;;5054827;28;20185;-87
2022/06/22 00:07:30;;;;;;;6.77;5.00;;;;;;;;;;5054967;28;20197;-87
2022/06/22 00:10:09;;;;;;;6.07;4.03;;;;;;;;;;5055075;28;20185;-86
2022/06/22 00:12:36;;;;;;;6.33;4.67;;;;;;;;;;5055370;28;20182;-87
2022/06/22 00:15:21;;;;;;;6.83;4.53;;;;;;;;;;5054862;28;20198;-87
2022/06/22 00:17:50;;;;;;;6.30;4.40;;;;;;;;;;5055007;28;20197;-87
2022/06/22 00:20:23;;;;;;;8.20;5.33;;;;;;;;;;5054442;28;20234;-87
2022/06/22 00:22:52;;;;;;;5.57;4.93;;;;;;;;;;5055238;28;20186;-87
2022/06/22 00:25:24;;;;;;;5.80;5.13;;;;;;;;;;5054817;28;20202;-87
2022/06/22 00:27:51;;;;;;;4.37;3.97;;;;;;;;;;5054592;28;20198;-87
2022/06/22 00:30:28;;;;;;;5.83;4.67;;;;;;;;;;5053635;28;20202;-87
2022/06/22 00:33:14;;;;;;;8.07;4.80;;;;;;;;;;5054993;28;20190;-87
2022/06/22 00:35:58;;;;;;;7.63;4.90;;;;;;;;;;5054824;28;20195;-88
2022/06/22 00:38:29;;;;;;;5.47;4.17;;;;;;;;;;5050988;28;20255;-86
2022/06/22 00:40:58;;;;;;;4.60;4.17;;;;;;;;;;5054645;28;20264;-86
2022/06/22 00:43:28;;;;;;;7.70;4.03;;;;;;;;;;5054155;28;20200;-87
2022/06/22 00:45:57;;;;;;;4.80;4.30;;;;;;;;;;5054248;28;20605;-86
2022/06/22 00:48:30;;;;;;;6.23;4.00;;;;;;;;;;5054421;28;20202;-87
2022/06/22 00:51:01;;;;;;;6.40;4.70;;;;;;;;;;5054514;28;20186;-86
2022/06/22 00:53:34;;;;;;;10.47;4.70;;;;;;;;;;5053930;28;20263;-86
2022/06/22 00:56:08;;;;;;;7.20;4.27;;;;;;;;;;5053970;28;20202;-87
2022/06/22 00:58:38;;;;;;;5.90;5.10;;;;;;;;;;5053431;28;20190;-87
2022/06/22 01:01:08;;;;;;;6.77;5.50;;;;;;;;;;5053960;28;20189;-87
2022/06/22 01:03:41;;;;;;;6.20;4.30;;;;;;;;;;5054062;28;20198;-87
2022/06/22 01:06:15;;;;;;;4.50;4.10;;;;;;;;;;5054172;28;20190;-87
2022/06/22 01:08:48;;;;;;;7.73;4.37;;;;;;;;;;5054172;28;20194;-87
2022/06/22 01:14:06;;;;;;;5.77;4.77;;;;;;;;;;5052497;28;20304;-87
2022/06/22 01:16:38;;;;;;;7.03;4.43;;;;;;;;;;5053743;28;20253;-87
2022/06/22 01:19:16;;;;;;;7.97;4.20;;;;;;;;;;5054129;28;20208;-86
2022/06/22 01:21:45;;;;;;;5.10;4.43;;;;;;;;;;5053331;28;20225;-86
2022/06/22 01:24:21;;;;;;;7.63;5.20;;;;;;;;;;5053741;28;20296;-87
2022/06/22 01:27:11;;;;;;;7.33;4.87;;;;;;;;;;5054057;28;20646;-87
2022/06/22 01:29:46;;;;;;;6.10;4.10;;;;;;;;;;5053710;28;20198;-85
2022/06/22 01:32:20;;;;;;;6.87;4.27;;;;;;;;;;5053731;28;20185;-87
2022/06/22 01:34:48;;;;;;;4.63;3.93;;;;;;;;;;5053388;28;20217;-87
2022/06/22 01:37:19;;;;;;;8.03;4.80;;;;;;;;;;5053364;28;20259;-87
2022/06/22 01:39:46;;;;;;;3.80;3.50;;;;;;;;;;5053146;28;20198;-89
2022/06/22 01:42:19;;;;;;;6.87;4.10;;;;;;;;;;5053184;28;20195;-87
2022/06/22 01:44:52;;;;;;;7.37;4.00;;;;;;;;;;5053722;28;20201;-87
2022/06/22 01:47:28;;;;;;;8.13;4.60;;;;;;;;;;5054003;28;20186;-88
2022/06/22 01:50:06;;;;;;;5.70;4.20;;;;;;;;;;5053426;28;20739;-87
2022/06/22 01:52:42;;;;;;;9.47;4.40;;;;;;;;;;5053201;28;20716;-86
2022/06/22 01:55:14;;;;;;;7.80;4.73;;;;;;;;;;5053325;28;20292;-87
2022/06/22 01:57:45;;;;;;;7.80;3.93;;;;;;;;;;5053275;28;20189;-86
2022/06/22 02:00:17;;;;;;;6.50;3.77;;;;;;;;;;5052948;28;20178;-87
2022/06/22 02:02:50;;;;;;;5.93;3.80;;;;;;;;;;5053041;28;20186;-86
2022/06/22 02:05:22;;;;;;;6.83;3.47;;;;;;;;;;5052840;28;20186;-87
2022/06/22 02:07:54;;;;;;;6.37;4.10;;;;;;;;;;5052725;28;20208;-87
2022/06/22 02:10:29;;;;;;;7.23;4.77;;;;;;;;;;5052612;28;20194;-86
2022/06/22 02:13:02;;;;;;;7.40;4.77;;;;;;;;;;5053011;28;20235;-87
2022/06/22 02:15:41;;;;;;;5.30;4.00;;;;;;;;;;5051568;28;20213;-86
2022/06/22 02:18:11;;;;;;;5.67;4.50;;;;;;;;;;5052731;28;20658;-86
2022/06/22 02:20:40;;;;;;;5.50;4.63;;;;;;;;;;5052024;28;20714;-86
2022/06/22 02:23:17;;;;;;;5.97;4.00;;;;;;;;;;5052426;28;20194;-87
2022/06/22 02:25:51;;;;;;;8.93;4.90;;;;;;;;;;5052776;28;20181;-81
2022/06/22 02:28:18;;;;;;;5.63;4.40;;;;;;;;;;5052144;28;20273;-81
2022/06/22 02:30:46;;;;;;;5.80;4.03;;;;;;;;;;5052315;28;20194;-82
2022/06/22 02:33:14;;;;;;;10.40;4.40;;;;;;;;;;5052326;28;20198;-82
2022/06/22 02:35:42;;;;;;;5.27;4.40;;;;;;;;;;5051668;28;20229;-82
2022/06/22 02:38:11;;;;;;;9.40;4.93;;;;;;;;;;5052034;28;20198;-82
2022/06/22 02:46:14;;;;;;;6.23;4.60;;;;;;;;;;5052490;28;20185;-83
2022/06/22 02:48:42;;;;;;;7.60;4.77;;;;;;;;;;5051590;28;20190;-82
2022/06/22 02:51:19;;;;;;;6.07;4.73;;;;;;;;;;5051864;28;20248;-82
2022/06/22 02:53:46;;;;;;;8.70;5.57;;;;;;;;;;5051214;28;20210;-82
2022/06/22 02:56:27;;;;;;;7.43;5.33;;;;;;;;;;5048153;28;20608;-81
2022/06/22 02:58:54;;;;;;;7.60;5.27;;;;;;;;;;5051762;28;20560;-81
2022/06/22 03:01:25;;;;;;;4.50;4.10;;;;;;;;;;5051705;28;20236;-81
2022/06/22 03:03:55;;;;;;;7.37;4.97;;;;;;;;;;5051331;28;20182;-81
2022/06/22 03:06:26;;;;;;;5.10;4.60;;;;;;;;;;5051255;28;20202;-81
2022/06/22 03:08:54;;;;;;;6.67;5.20;;;;;;;;;;5051612;28;20239;-82
2022/06/22 03:11:21;;;;;;;5.27;4.83;;;;;;;;;;5051917;28;20194;-81
2022/06/22 03:13:51;;;;;;;8.93;5.13;;;;;;;;;;5051161;28;20697;-81
2022/06/22 03:16:26;;;;;;;8.53;5.50;;;;;;;;;;5051812;28;20198;-82
2022/06/22 03:18:54;;;;;;;6.03;5.43;;;;;;;;;;5051369;28;20185;-82
2022/06/22 03:21:21;;;;;;;7.30;5.77;;;;;;;;;;5051293;28;20234;-82
2022/06/22 03:23:52;;;;;;;5.50;5.07;;;;;;;;;;5051386;28;20201;-82
2022/06/22 03:26:21;;;;;;;6.87;6.17;;;;;;;;;;5051338;28;20182;-82
2022/06/22 03:28:51;;;;;;;7.97;5.37;;;;;;;;;;5050755;28;20198;-82
2022/06/22 03:31:23;;;;;;;8.47;6.40;;;;;;;;;;5051366;28;20639;-82
2022/06/22 03:33:55;;;;;;;8.07;5.80;;;;;;;;;;5051347;28;20573;-82
2022/06/22 03:36:24;;;;;;;6.47;5.87;;;;;;;;;;5051232;28;20202;-82
2022/06/22 03:38:55;;;;;;;6.50;5.43;;;;;;;;;;5051179;28;20271;-82
2022/06/22 03:41:26;;;;;;;8.63;5.97;;;;;;;;;;5051542;28;20188;-82
2022/06/22 03:43:56;;;;;;;6.07;5.47;;;;;;;;;;5051277;28;20248;-82
2022/06/22 03:46:28;;;;;;;8.63;6.43;;;;;;;;;;5051312;28;20186;-82
2022/06/22 03:49:00;;;;;;;6.40;5.70;;;;;;;;;;5047810;28;20279;-80
2022/06/22 03:51:29;;;;;;;7.67;5.63;;;;;;;;;;5051162;28;20599;-82
2022/06/22 03:54:00;;;;;;;6.17;5.20;;;;;;;;;;5036887;28;20663;-83
2022/06/22 03:56:32;;;;;;;9.00;6.00;;;;;;;;;;5050489;28;20204;-82
2022/06/22 03:58:59;;;;;;;8.47;5.90;;;;;;;;;;5051351;28;20194;-82
2022/06/22 04:01:27;;;;;;;7.07;5.90;;;;;;;;;;5051157;28;20631;-79
2022/06/22 04:03:54;;;;;;;7.60;5.60;;;;;;;;;;5053172;28;20205;-80
2022/06/22 04:06:31;;;;;;;12.23;6.37;;;;;;;;;;5054968;28;20198;-81
2022/06/22 04:08:58;;;;;;;7.03;6.50;;;;;;;;;;5054487;28;20185;-80
2022/06/22 04:11:29;;;;;;;7.33;5.50;;;;;;;;;;5055220;28;20208;-80
2022/06/22 04:14:01;;;;;;;9.93;7.67;;;;;;;;;;5054503;28;20244;-80
2022/06/22 04:16:32;;;;;;;7.63;5.70;;;;;;;;;;5054813;28;20182;-81
2022/06/22 04:19:02;;;;;;;7.37;5.90;;;;;;;;;;5054916;28;20547;-86
2022/06/22 04:21:33;;;;;;;7.03;5.50;;;;;;;;;;5054995;28;20238;-87
2022/06/22 04:24:03;;;;;;;8.20;6.03;;;;;;;;;;5054930;28;20190;-86
2022/06/22 04:26:42;;;;;;;8.33;5.83;;;;;;;;;;5054984;28;20186;-87
2022/06/22 04:29:23;;;;;;;6.93;5.50;;;;;;;;;;5055041;28;20182;-86
2022/06/22 04:31:55;;;;;;;7.00;6.30;;;;;;;;;;5055596;28;20586;-87
2022/06/22 04:34:31;;;;;;;11.23;6.23;;;;;;;;;;5055158;28;20229;-86
2022/06/22 04:37:01;;;;;;;5.83;5.33;;;;;;;;;;5055583;28;20570;-87
2022/06/22 04:39:32;;;;;;;7.53;5.93;;;;;;;;;;5055336;28;20666;-88
2022/06/22 04:42:00;;;;;;;9.70;5.70;;;;;;;;;;5055092;28;20200;-89
2022/06/22 04:44:30;;;;;;;6.73;6.03;;;;;;;;;;5055019;28;20292;-87
2022/06/22 04:47:00;;;;;;;7.27;6.27;;;;;;;;;;5055111;28;20268;-88
2022/06/22 04:49:30;;;;;;;6.70;6.10;;;;;;;;;;5054854;28;20200;-88
2022/06/22 04:52:02;;;;;;;5.70;5.17;;;;;;;;;;5054948;28;20178;-88
2022/06/22 04:54:33;;;;;;;5.93;5.43;;;;;;;;;;5055123;28;20310;-87
2022/06/22 04:57:04;;;;;;;6.13;5.40;;;;;;;;;;5054362;28;20198;-88
2022/06/22 04:59:31;;;;;;;7.43;5.50;;;;;;;;;;5054879;28;20198;-87
2022/06/22 05:02:01;;;;;;;6.33;5.67;;;;;;;;;;5054599;28;20259;-89
2022/06/22 05:04:30;;;;;;;10.93;5.70;;;;;;;;;;5054985;28;20216;-88
2022/06/22 05:07:03;;;;;;;6.83;6.13;;;;;;;;;;5054735;28;20208;-87
2022/06/22 05:09:44;;;;;;;5.83;5.27;;;;;;;;;;5055340;28;20194;-88
2022/06/22 05:12:14;;;;;;;6.13;5.33;;;;;;;;;;5054655;28;20198;-88
2022/06/22 05:14:41;;;;;;;8.10;5.90;;;;;;;;;;5054288;28;20222;-88
2022/06/22 05:17:13;;;;;;;6.03;5.27;;;;;;;;;;5055058;28;20240;-88
2022/06/22 05:19:45;;;;;;;8.43;4.90;;;;;;;;;;5054832;28;20201;-87
2022/06/22 05:22:18;;;;;;;6.77;4.63;;;;;;;;;;5054602;28;20209;-88
2022/06/22 05:24:47;;;;;;;6.53;5.03;;;;;;;;;;5054473;28;20200;-87
2022/06/22 05:27:22;;;;;;;5.57;5.17;;;;;;;;;;5054348;28;20198;-88
2022/06/22 05:29:51;;;;;;;6.33;5.53;;;;;;;;;;5054408;28;20193;-88
2022/06/22 05:32:26;;;;;;;10.50;5.40;;;;;;;;;;5054492;28;20276;-88
2022/06/22 05:34:55;;;;;;;10.13;5.60;;;;;;;;;;5054735;28;20225;-88
2022/06/22 05:37:28;;;;;;;12.13;6.13;;;;;;;;;;5054379;28;20190;-88
2022/06/22 05:39:57;;;;;;;9.73;5.57;;;;;;;;;;5054189;28;20190;-87
2022/06/22 05:42:25;;;;;;;9.30;5.53;;;;;;;;;;5054064;28;20198;-88
2022/06/22 05:44:53;;;;;;;6.43;5.20;;;;;;;;;;5054084;28;20239;-88
2022/06/22 05:47:23;;;;;;;5.60;4.47;;;;;;;;;;5054203;28;20198;-89
2022/06/22 05:49:56;;;;;;;8.60;5.47;;;;;;;;;;5054232;28;20201;-89
2022/06/22 05:52:33;;;;;;;7.23;5.67;;;;;;;;;;5052696;28;20210;-89
2022/06/22 05:55:04;;;;;;;10.00;5.27;;;;;;;;;;5033840;28;20218;-88
2022/06/22 05:57:36;;;;;;;8.33;5.03;;;;;;;;;;5034152;28;20198;-88
2022/06/22 06:00:16;;;;;;;8.50;5.20;;;;;;;;;;5034106;28;20206;-90
2022/06/22 06:02:48;;;;;;;11.47;5.67;;;;;;;;;;5033807;28;20663;-89
2022/06/22 06:05:18;;;;;;;6.17;4.97;;;;;;;;;;5033720;28;20199;-88
2022/06/22 06:07:48;;;;;;;9.73;5.03;;;;;;;;;;5034043;28;20198;-87
2022/06/22 06:10:20;;;;;;;10.77;6.07;;;;;;;;;;5033313;28;20191;-87
2022/06/22 06:12:57;;;;;;;7.40;5.37;;;;;;;;;;5033562;28;20195;-88
2022/06/22 06:15:24;;;;;;;10.50;5.83;;;;;;;;;;5033469;28;20565;-87
2022/06/22 06:17:54;;;;;;;11.03;5.77;;;;;;;;;;5033606;28;20191;-89
2022/06/22 06:20:29;;;;;;;6.33;5.50;;;;;;;;;;5032977;28;20253;-89
2022/06/22 06:23:01;;;;;;;9.20;5.20;;;;;;;;;;5033284;28;20201;-88
2022/06/22 06:28:26;;;;;;;5.70;5.03;;;;;;;;;;5033016;28;20687;-88
2022/06/22 06:30:57;;;;;;;13.43;6.37;;;;;;;;;;5032883;28;20210;-90
2022/06/22 06:33:30;;;;;;;9.87;6.00;;;;;;;;;;5032961;28;20230;-87
2022/06/22 06:36:00;;;;;;;6.20;5.07;;;;;;;;;;5032812;28;20241;-87
2022/06/22 06:38:32;;;;;;;10.30;6.43;;;;;;;;;;5033206;28;20205;-91
2022/06/22 06:41:03;;;;;;;6.23;5.40;;;;;;;;;;5033561;28;20628;-88
2022/06/22 06:43:36;;;;;;;13.03;5.67;;;;;;;;;;5033907;28;20598;-89
2022/06/22 06:46:16;;;;;;;11.07;5.93;;;;;;;;;;5032867;28;20197;-89
2022/06/22 06:48:45;;;;;;;10.33;5.37;;;;;;;;;;5033408;28;20198;-87
2022/06/22 06:51:17;;;;;;;8.83;5.30;;;;;;;;;;5032861;28;20194;-89
2022/06/22 06:53:52;;;;;;;5.97;5.37;;;;;;;;;;5032810;28;20206;-87
2022/06/22 06:56:27;;;;;;;7.83;5.70;;;;;;;;;;5033145;28;20586;-87
2022/06/22 06:58:56;;;;;;;7.97;5.40;;;;;;;;;;5032927;28;20263;-91
2022/06/22 07:01:24;;;;;;;6.40;5.43;;;;;;;;;;5032822;28;20616;-89
2022/06/22 07:03:56;;;;;;;7.77;5.83;;;;;;;;;;5032995;28;20265;-89
2022/06/22 07:06:24;;;;;;;10.23;6.40;;;;;;;;;;5033085;28;20277;-88
2022/06/22 07:08:56;;;;;;;6.03;5.43;;;;;;;;;;5033415;28;20578;-89
2022/06/22 07:11:32;;;;;;;6.90;6.30;;;;;;;;;;5032979;28;20194;-89
2022/06/22 07:14:04;;;;;;;9.57;6.77;;;;;;;;;;5032880;28;20687;-90
2022/06/22 07:16:31;;;;;;;6.30;5.70;;;;;;;;;;5032534;28;20223;-89
2022/06/22 07:19:01;;;;;;;6.17;5.63;;;;;;;;;;5032470;28;20209;-90
2022/06/22 07:21:34;;;;;;;10.00;6.83;;;;;;;;;;5032124;28;20227;-88
2022/06/22 07:24:07;;;;;;;8.03;7.23;;;;;;;;;;5032816;28;20206;-89
2022/06/22 07:26:43;;;;;;;7.53;6.73;;;;;;;;;;5032485;28;20320;-88
2022/06/22 07:29:22;;;;;;;8.90;7.07;;;;;;;;;;5032989;28;20237;-89
2022/06/22 07:31:55;;;;;;;10.13;7.17;;;;;;;;;;5032406;28;20248;-88
2022/06/22 07:34:26;;;;;;;8.93;6.97;;;;;;;;;;5032514;28;20216;-88
2022/06/22 07:36:56;;;;;;;9.77;7.00;;;;;;;;;;5032466;28;20223;-89
2022/06/22 07:39:30;;;;;;;13.90;7.23;;;;;;;;;;5035761;28;20257;-89
2022/06/22 07:41:59;;;;;;;9.50;7.63;;;;;;;;;;5036898;28;20631;-89
2022/06/22 07:44:28;;;;;;;11.17;7.43;;;;;;;;;;5036260;28;20202;-88
2022/06/22 07:47:00;;;;;;;9.40;7.77;;;;;;;;;;5054580;28;20758;-90
2022/06/22 07:49:30;;;;;;;11.13;7.80;;;;;;;;;;5055987;28;20189;-88
2022/06/22 07:52:01;;;;;;;10.37;8.00;;;;;;;;;;5056348;28;20201;-89
2022/06/22 07:54:32;;;;;;;8.43;7.60;;;;;;;;;;5056264;28;20187;-88
2022/06/22 07:57:06;;;;;;;7.33;6.53;;;;;;;;;;5055836;28;20692;-88
2022/06/22 07:59:38;;;;;;;7.80;7.00;;;;;;;;;;5056149;28;20182;-90
2022/06/22 08:02:13;;;;;;;7.37;6.50;;;;;;;;;;5056196;28;20742;-89
2022/06/22 08:04:52;;;;;;;7.50;6.87;;;;;;;;;;5055733;28;20186;-89
2022/06/22 08:07:25;;;;;;;9.37;6.93;;;;;;;;;;5056251;28;20209;-89
2022/06/22 08:10:00;;;;;;;11.33;8.00;;;;;;;;;;5056028;28;20190;-90
2022/06/22 08:12:32;;;;;;;10.93;7.30;;;;;;;;;;5055854;28;20200;-89
2022/06/22 08:15:05;;;;;;;14.07;8.98;;;;;;;;;;5055593;28;20182;-90
2022/06/22 08:17:42;;;;;;;13.38;8.27;;;;;;;;;;5055871;28;20665;-90
2022/06/22 08:20:18;;;;;;;9.03;7.43;;;;;;;;;;5055415;28;20295;-90
2022/06/22 08:22:47;;;;;;;13.97;8.03;;;;;;;;;;5055610;28;20193;-89
2022/06/22 08:25:23;;;;;;;9.10;7.43;;;;;;;;;;5055440;28;20639;-88
2022/06/22 08:27:57;;;;;;;10.37;8.07;;;;;;;;;;5055508;28;20193;-89
2022/06/22 08:30:27;;;;;;;8.70;7.90;;;;;;;;;;5055074;28;20697;-89
2022/06/22 08:33:02;;;;;;;8.87;7.53;;;;;;;;;;5055417;28;20256;-89
2022/06/22 08:35:33;;;;;;;10.13;7.77;;;;;;;;;;5055949;28;20221;-91
2022/06/22 08:38:03;;;;;;;14.27;7.50;;;;;;;;;;5055330;28;20188;-88
2022/06/22 08:40:39;;;;;;;9.10;7.37;;;;;;;;;;5055169;28;20202;-87
2022/06/22 08:43:13;;;;;;;9.10;8.15;;;;;;;;;;5055227;28;20204;-91
2022/06/22 08:46:17;;;;;;;11.57;9.00;;;;;;;;;;5055141;28;20206;-90
2022/06/22 08:49:00;;;;;;;10.43;9.43;;;;;;;;;;5055142;28;20224;-89
2022/06/22 08:51:55;;;;;;;12.85;10.07;;;;;;;;;;5054318;28;20198;-88
2022/06/22 08:54:39;;;;;;;11.27;10.18;;;;;;;;;;5054856;28;20271;-91
2022/06/22 08:57:12;;;;;;;12.83;9.17;;;;;;;;;;5054870;28;20232;-90
2022/06/22 09:00:04;;;;;;;9.68;8.55;;;;;;;;;;5054915;28;20193;-89
2022/06/22 09:02:57;;;;;;;10.15;8.30;;;;;;;;;;4974549;28;20205;-88
2022/06/22 09:05:59;;;;;;;10.38;9.38;;;;;;;;;;5054475;28;20240;-89
2022/06/22 09:09:05;;;;;;;15.93;10.10;;;;;;;;;;4945785;28;20201;-87
2022/06/22 09:11:34;;;;;;;12.60;11.23;;;;;;;;;;4954255;28;20264;-88
2022/06/22 09:14:33;;;;;;;12.40;11.15;;;;;;;;;;5038381;28;20198;-89
2022/06/22 09:17:22;;;;;;;16.73;11.82;;;;;;;;;;5042642;28;20233;-89
2022/06/22 09:20:11;;;;;;;16.55;10.73;;;;;;;;;;5054379;28;20230;-88
2022/06/22 09:22:56;;;;;;;11.60;10.50;;;;;;;;;;5054493;28;20202;-91
2022/06/22 09:25:28;;;;;;;14.90;13.40;;;;;;;;;;5054185;28;20190;-90
2022/06/22 09:28:01;;;;;;;13.52;12.32;;;;;;;;;;5054343;28;20186;-90
2022/06/22 09:30:46;;;;;;;19.48;12.85;;;;;;;;;;5054524;28;20189;-89
2022/06/22 09:33:32;;;;;;;13.45;12.20;;;;;;;;;;5054968;28;20178;-90
2022/06/22 09:36:36;;;;;;;13.98;12.57;;;;;;;;;;5054295;28;20588;-90
2022/06/22 09:39:30;;;;;;;15.23;12.02;;;;;;;;;;5053989;28;20200;-87
2022/06/22 09:42:09;;;;;;;14.00;12.68;;;;;;;;;;5053975;28;20558;-89
2022/06/22 09:45:25;;;;;;;13.10;11.80;;;;;;;;;;5054209;28;20190;-89
2022/06/22 09:48:36;;;;;;;15.95;13.93;;;;;;;;;;5054173;28;20197;-88
2022/06/22 09:51:19;;;;;;;14.27;12.77;;;;;;;;;;5038379;28;20201;-89
2022/06/22 09:54:02;;;;;;;15.43;13.90;;;;;;;;;;5053825;28;20197;-89
2022/06/22 09:56:42;;;;;;;24.95;13.25;;;;;;;;;;5053822;28;20650;-89
2022/06/22 09:59:33;;;;;;;12.60;11.52;;;;;;;;;;5053814;28;20209;-90
2022/06/22 10:02:12;;;;;;;13.43;12.20;;;;;;;;;;5054167;28;20198;-89
2022/06/22 10:05:31;;;;;;;12.20;9.43;;;;;;;;;;5053973;28;20194;-90
2022/06/22 10:08:08;;;;;;;10.30;9.32;;;;;;;;;;4973045;28;20674;-90
2022/06/22 10:10:43;;;;;;;18.57;10.97;;;;;;;;;;4973492;28;20204;-89
2022/06/22 10:13:33;;;;;;;13.60;9.40;;;;;;;;;;5028523;28;20566;-88
2022/06/22 10:16:17;;;;;;;10.57;9.48;;;;;;;;;;5053412;28;20701;-89
2022/06/22 10:18:58;;;;;;;16.10;7.93;;;;;;;;;;5038337;28;20744;-89
2022/06/22 10:21:36;;;;;;;9.75;8.80;;;;;;;;;;5052792;28;20234;-89
2022/06/22 10:24:39;;;;;;;7.93;7.18;;;;;;;;;;5053156;28;20225;-90
2022/06/22 10:27:41;;;;;;;10.10;7.95;;;;;;;;;;5039876;28;20194;-89
2022/06/22 10:30:29;;;;;;;12.20;8.75;;;;;;;;;;5053486;28;20190;-89
2022/06/22 10:33:43;;;;;;;8.13;6.65;;;;;;;;;;5052945;28;20909;-89
2022/06/22 10:36:46;;;;;;;10.68;7.75;;;;;;;;;;5007152;28;20224;-89
2022/06/22 10:39:41;;;;;;;9.10;7.63;;;;;;;;;;5052593;28;20716;-91
2022/06/22 10:45:26;;;;;;;10.65;7.25;;;;;;;;;;5052914;28;20176;-89
2022/06/22 10:48:15;;;;;;;8.93;7.38;;;;;;;;;;5053603;28;20241;-89
2022/06/22 10:50:52;;;;;;;9.30;8.30;;;;;;;;;;5052733;28;20193;-89
2022/06/22 10:53:43;;;;;;;9.48;7.97;;;;;;;;;;5052749;28;20189;-89
2022/06/22 10:56:38;;;;;;;13.18;7.68;;;;;;;;;;5053095;28;20221;-90
2022/06/22 10:59:32;;;;;;;9.60;8.70;;;;;;;;;;5052774;28;20186;-88
2022/06/22 11:02:25;;;;;;;8.82;8.13;;;;;;;;;;5010314;28;20665;-89
2022/06/22 11:05:17;;;;;;;12.48;8.20;;;;;;;;;;5052984;28;20178;-89
2022/06/22 11:08:18;;;;;;;12.88;8.57;;;;;;;;;;5052416;28;20178;-88
2022/06/22 11:11:06;;;;;;;12.20;9.68;;;;;;;;;;5044883;28;20583;-89
2022/06/22 11:14:09;;;;;;;13.93;9.07;;;;;;;;;;5054667;28;20610;-89
2022/06/22 11:16:52;;;;;;;10.43;8.73;;;;;;;;;;4954257;28;20235;-89
2022/06/22 11:19:41;;;;;;;14.20;10.38;;;;;;;;;;5053954;28;20198;-89
2022/06/22 11:22:17;;;;;;;11.65;10.18;;;;;;;;;;5056624;28;20186;-90
2022/06/22 11:25:13;;;;;;;10.33;9.23;;;;;;;;;;5056857;28;20178;-88
2022/06/22 11:30:56;;;;;;;12.07;10.85;;;;;;;;;;5056728;28;20180;-89
2022/06/22 11:33:57;;;;;;;11.13;10.03;;;;;;;;;;5056523;28;20205;-90
2022/06/22 11:36:31;;;;;;;11.43;10.20;;;;;;;;;;5050180;28;20221;-90
2022/06/22 11:39:38;;;;;;;11.67;10.53;;;;;;;;;;5056392;28;20201;-88
2022/06/22 11:42:24;;;;;;;13.10;10.80;;;;;;;;;;5056261;28;20201;-88
2022/06/22 11:48:12;;;;;;;10.88;9.75;;;;;;;;;;5056127;28;20177;-91
2022/06/22 11:50:59;;;;;;;12.10;10.85;;;;;;;;;;5056432;28;20647;-90
2022/06/22 11:53:50;;;;;;;12.90;10.17;;;;;;;;;;5056545;28;20198;-88
2022/06/22 11:56:25;;;;;;;13.35;11.57;;;;;;;;;;5056218;28;20201;-89
2022/06/22 11:59:04;;;;;;;13.10;10.20;;;;;;;;;;5056130;28;20759;-89
2022/06/22 12:01:53;;;;;;;11.80;9.80;;;;;;;;;;5055994;28;20601;-89
2022/06/22 12:04:54;;;;;;;12.63;10.25;;;;;;;;;;4956215;29;20226;-89
2022/06/22 12:07:52;;;;;;;14.60;10.60;;;;;;;;;;4956118;29;20204;-89
2022/06/22 12:10:48;;;;;;;12.17;10.73;;;;;;;;;;4956722;29;20198;-90
2022/06/22 12:13:28;;;;;;;14.70;10.63;;;;;;;;;;4956075;29;20699;-90
2022/06/22 12:16:08;;;;;;;11.55;10.35;;;;;;;;;;4956272;29;20209;-90
2022/06/22 12:18:49;;;;;;;10.83;9.73;;;;;;;;;;4955769;29;20206;-89
2022/06/22 12:21:57;;;;;;;14.37;12.30;;;;;;;;;;4955525;29;20237;-88
2022/06/22 12:24:33;;;;;;;15.90;12.33;;;;;;;;;;4923273;28;20198;-89
2022/06/22 12:27:08;;;;;;;14.90;11.73;;;;;;;;;;4955576;29;20200;-88
2022/06/22 12:30:17;;;;;;;26.25;11.85;;;;;;;;;;4955790;29;20205;-89
2022/06/22 12:32:49;;;;;;;14.10;10.32;;;;;;;;;;4953023;29;20209;-88
2022/06/22 12:35:36;;;;;;;11.43;10.32;;;;;;;;;;4955773;29;20289;-90
2022/06/22 12:38:13;;;;;;;11.23;10.15;;;;;;;;;;4955676;29;20660;-90
2022/06/22 12:40:51;;;;;;;10.43;9.23;;;;;;;;;;4970371;28;20673;-89
2022/06/22 12:43:43;;;;;;;11.32;10.15;;;;;;;;;;5055693;28;20578;-89
2022/06/22 12:46:15;;;;;;;15.05;9.52;;;;;;;;;;5055340;28;20202;-89
2022/06/22 12:49:21;;;;;;;9.68;8.82;;;;;;;;;;5055345;28;20205;-89
2022/06/22 12:51:52;;;;;;;10.27;8.98;;;;;;;;;;5053600;28;20201;-88
2022/06/22 12:54:25;;;;;;;14.40;9.00;;;;;;;;;;5054941;28;20257;-89
2022/06/22 12:57:02;;;;;;;9.10;8.23;;;;;;;;;;5055119;28;20217;-88
2022/06/22 12:59:34;;;;;;;13.07;9.15;;;;;;;;;;5054823;28;20201;-88
2022/06/22 13:02:04;;;;;;;11.60;8.50;;;;;;;;;;5054410;28;20190;-89
2022/06/22 13:04:33;;;;;;;17.75;9.10;;;;;;;;;;5054673;28;20669;-90
2022/06/22 13:07:06;;;;;;;9.98;8.98;;;;;;;;;;5054653;28;20549;-90
2022/06/22 13:09:34;;;;;;;11.48;9.43;;;;;;;;;;5054862;28;20748;-90
2022/06/22 13:12:05;;;;;;;11.68;9.23;;;;;;;;;;5054386;28;20198;-90
2022/06/22 13:14:37;;;;;;;14.27;9.45;;;;;;;;;;5054602;28;20200;-89
2022/06/22 13:17:33;;;;;;;9.82;8.88;;;;;;;;;;5054739;28;20205;-89
2022/06/22 13:20:33;;;;;;;18.65;9.60;;;;;;;;;;5054112;28;20789;-90
2022/06/22 13:23:15;;;;;;;14.70;8.90;;;;;;;;;;5054406;28;20224;-89
2022/06/22 13:25:48;;;;;;;15.50;8.57;;;;;;;;;;5054279;28;20190;-90
2022/06/22 13:28:20;;;;;;;9.48;8.43;;;;;;;;;;5054292;28;20248;-91
2022/06/22 13:30:56;;;;;;;14.07;9.00;;;;;;;;;;5054227;28;20646;-88
2022/06/22 13:33:30;;;;;;;10.55;8.43;;;;;;;;;;5054588;28;20646;-90
2022/06/22 13:36:02;;;;;;;16.45;9.20;;;;;;;;;;5053887;28;20189;-90
2022/06/22 13:38:50;;;;;;;9.43;8.18;;;;;;;;;;5053967;28;20271;-90
2022/06/22 13:41:28;;;;;;;11.48;7.93;;;;;;;;;;5053919;28;20182;-88
2022/06/22 13:44:29;;;;;;;11.80;8.10;;;;;;;;;;5054205;28;20186;-89
2022/06/22 13:47:20;;;;;;;9.38;7.90;;;;;;;;;;5037690;28;20201;-90
2022/06/22 13:50:14;;;;;;;12.45;7.72;;;;;;;;;;5053714;28;20224;-90
2022/06/22 13:52:44;;;;;;;12.98;8.55;;;;;;;;;;5053947;28;20198;-89
2022/06/22 13:55:39;;;;;;;14.25;8.50;;;;;;;;;;5054331;28;20592;-89
2022/06/22 13:58:12;;;;;;;17.83;8.43;;;;;;;;;;5053601;28;20659;-87
2022/06/22 14:00:50;;;;;;;9.82;8.85;;;;;;;;;;5053787;28;20217;-89
2022/06/22 14:03:27;;;;;;;10.13;9.18;;;;;;;;;;5053810;28;20650;-90
2022/06/22 14:05:57;;;;;;;9.18;7.88;;;;;;;;;;5054293;28;20204;-90
2022/06/22 14:08:41;;;;;;;17.75;7.95;;;;;;;;;;5053589;28;20190;-90
2022/06/22 14:11:13;;;;;;;11.27;8.13;;;;;;;;;;5051786;28;20673;-90
2022/06/22 14:13:50;;;;;;;11.40;8.27;;;;;;;;;;5053739;28;20255;-89
2022/06/22 14:16:23;;;;;;;13.20;8.35;;;;;;;;;;5053713;28;20227;-89
2022/06/22 14:18:57;;;;;;;9.27;7.93;;;;;;;;;;5052827;28;20224;-88
2022/06/22 14:21:31;;;;;;;11.27;8.73;;;;;;;;;;5052523;28;20230;-88
2022/06/22 14:24:19;;;;;;;11.48;7.90;;;;;;;;;;5053310;28;20229;-89
2022/06/22 14:27:02;;;;;;;8.73;7.47;;;;;;;;;;5053148;28;20636;-88
2022/06/22 14:29:41;;;;;;;8.80;7.50;;;;;;;;;;5053104;28;20232;-88
2022/06/22 14:32:22;;;;;;;8.35;7.53;;;;;;;;;;5052774;28;20182;-88
2022/06/22 14:35:02;;;;;;;8.32;7.20;;;;;;;;;;5052912;28;20186;-88
2022/06/22 14:37:35;;;;;;;7.78;7.07;;;;;;;;;;5053065;28;20587;-87
2022/06/22 14:40:07;;;;;;;7.78;7.05;;;;;;;;;;5048937;28;20205;-87
2022/06/22 14:42:38;;;;;;;8.18;6.88;;;;;;;;;;5052469;28;20182;-87
2022/06/22 14:45:10;;;;;;;9.48;7.15;;;;;;;;;;5051980;28;20236;-86
2022/06/22 14:47:40;;;;;;;8.70;6.13;;;;;;;;;;5050678;28;20227;-87
2022/06/22 14:50:18;;;;;;;13.50;6.95;;;;;;;;;;5051643;28;20194;-88
2022/06/22 14:52:53;;;;;;;10.77;6.88;;;;;;;;;;5052042;28;20182;-86
2022/06/22 14:55:29;;;;;;;6.65;6.05;;;;;;;;;;5051900;28;20198;-86
2022/06/22 14:58:03;;;;;;;10.23;6.40;;;;;;;;;;5036439;28;20294;-86
2022/06/22 15:00:38;;;;;;;6.55;5.93;;;;;;;;;;5032068;28;20193;-86
2022/06/22 15:03:17;;;;;;;8.60;5.80;;;;;;;;;;5031924;28;20570;-85
2022/06/22 15:05:53;;;;;;;7.40;5.95;;;;;;;;;;5032053;28;20182;-86
2022/06/22 15:08:25;;;;;;;8.18;6.78;;;;;;;;;;5031710;28;20240;-86
2022/06/22 15:10:56;;;;;;;11.45;6.38;;;;;;;;;;5032409;28;20618;-87
2022/06/22 15:13:28;;;;;;;6.72;5.97;;;;;;;;;;5031971;28;20179;-85
2022/06/22 15:16:01;;;;;;;8.98;5.57;;;;;;;;;;5032028;28;20202;-86
2022/06/22 15:18:36;;;;;;;6.95;6.25;;;;;;;;;;5031951;28;20206;-84
2022/06/22 15:21:10;;;;;;;8.65;5.70;;;;;;;;;;5031787;28;20296;-85
2022/06/22 15:23:42;;;;;;;7.30;5.55;;;;;;;;;;5032073;28;20182;-85
2022/06/22 15:26:15;;;;;;;10.65;5.97;;;;;;;;;;5032264;28;20652;-86
2022/06/22 15:28:48;;;;;;;7.78;5.95;;;;;;;;;;5031654;28;20197;-86
2022/06/22 15:31:30;;;;;;;7.60;5.68;;;;;;;;;;5031718;28;20285;-84
2022/06/22 15:34:22;;;;;;;8.77;5.53;;;;;;;;;;5031585;28;20191;-86
2022/06/22 15:37:08;;;;;;;7.65;5.47;;;;;;;;;;5031653;28;20187;-85
2022/06/22 15:39:39;;;;;;;7.53;5.95;;;;;;;;;;5031649;28;20219;-86
2022/06/22 15:42:12;;;;;;;6.53;5.93;;;;;;;;;;5031936;28;20187;-85
2022/06/22 15:44:43;;;;;;;7.32;6.32;;;;;;;;;;5031765;28;20183;-87
2022/06/22 15:47:14;;;;;;;6.68;5.93;;;;;;;;;;5031567;28;20226;-86
2022/06/22 15:49:46;;;;;;;6.82;6.05;;;;;;;;;;5031280;28;20183;-85
2022/06/22 15:52:17;;;;;;;7.78;5.50;;;;;;;;;;5031663;28;20241;-86
2022/06/22 15:54:55;;;;;;;6.65;5.93;;;;;;;;;;5031226;28;20572;-85